ADDS METAR Data INFO
IDs: Format: Raw Decoded Include TAF

Data at: 1541 UTC 12 Dec 2017

KTEX 121535Z AUTO 13005KT 10SM CLR 02/M18 A3057 RMK AO2 T00151176
KTEX 121515Z AUTO 16004KT 10SM CLR 01/M17 A3056 RMK AO2 T00051174
KTEX 121455Z AUTO 14006KT 10SM CLR 00/M18 A3057 RMK AO2 T10041176
KTEX 121435Z AUTO 14005KT 10SM CLR 00/M18 A3057 RMK AO2 T00001182
KTEX 121415Z AUTO 14005KT 10SM CLR 00/M18 A3057 RMK AO2 T00001180
KTEX 121355Z AUTO 10004KT 10SM CLR 00/M18 A3057 RMK AO2 T10041180
KTEX 121335Z AUTO 14007KT 10SM CLR M01/M17 A3057 RMK AO2 T10061175
KTEX 121315Z AUTO 13005KT 10SM CLR 00/M18 A3057 RMK AO2 T10021177
KTEX 121255Z AUTO 14005KT 10SM CLR 00/M18 A3057 RMK AO2 T10031176
KTEX 121235Z AUTO 13006KT 10SM CLR 00/M17 A3056 RMK AO2 T10041174
KTEX 121215Z AUTO 00000KT 10SM CLR 00/M17 A3057 RMK AO2 T10041175
KTEX 121155Z AUTO 12006KT 10SM CLR M01/M17 A3057 RMK AO2 T10111172 10000 21026
KTEX 121135Z AUTO 14006KT 10SM CLR M01/M17 A3057 RMK AO2 T10121169
KTEX 121115Z AUTO 13005KT 10SM CLR M01/M17 A3057 RMK AO2 T10131166
KTEX 121055Z AUTO 14005KT 10SM CLR M01/M17 A3057 RMK AO2 T10061167
KTEX 121035Z AUTO 14006KT 10SM CLR M01/M17 A3058 RMK AO2 T10111168
KTEX 121015Z AUTO 00000KT 10SM CLR 00/M17 A3058 RMK AO2 T10051168
KTEX 120955Z AUTO 14006KT 10SM CLR M02/M16 A3058 RMK AO2 T10181165
KTEX 120935Z AUTO 15005KT 10SM CLR M01/M16 A3058 RMK AO2 T10121165
KTEX 120915Z AUTO 15005KT 10SM CLR M01/M17 A3058 RMK AO2 T10101166
KTEX 120855Z AUTO 13006KT 10SM CLR 00/M17 A3057 RMK AO2 T10011166
KTEX 120835Z AUTO 11005KT 10SM CLR M01/M17 A3057 RMK AO2 T10061168
KTEX 120815Z AUTO 13006KT 10SM CLR M01/M17 A3057 RMK AO2 T10121168
KTEX 120755Z AUTO 12004KT 10SM CLR M02/M17 A3057 RMK AO2 T10161166
KTEX 120735Z AUTO 14007KT 10SM CLR M01/M17 A3057 RMK AO2 T10061167
KTEX 120715Z AUTO 12006KT 10SM CLR M01/M16 A3058 RMK AO2 T10101165
KTEX 120655Z AUTO 14008KT 10SM CLR M01/M16 A3058 RMK AO2 T10061165 401171030
KTEX 120635Z AUTO 13006KT 10SM CLR M01/M17 A3057 RMK AO2 T10081167
KTEX 120615Z AUTO 14005KT 10SM CLR M01/M17 A3057 RMK AO2 T10131167
KTEX 120555Z AUTO 14006KT 10SM CLR M01/M17 A3056 RMK AO2 T10081166 10069 21008
KTEX 120535Z AUTO 16004KT 10SM CLR 00/M17 A3056 RMK AO2 T10041168
KTEX 120515Z AUTO 16003KT 10SM CLR 00/M17 A3056 RMK AO2 T10031169
KTEX 120455Z AUTO 13004KT 10SM CLR 00/M17 A3056 RMK AO2 T00001168
KTEX 120435Z AUTO 13005KT 10SM CLR M01/M17 A3055 RMK AO2 T10061168
KTEX 120415Z AUTO 13005KT 10SM CLR 00/M18 A3054 RMK AO2 T10031176
KTEX 120355Z AUTO 14006KT 10SM CLR 01/M17 A3054 RMK AO2 T00051171
KTEX 120335Z AUTO 00000KT 10SM CLR 00/M18 A3054 RMK AO2 T00011177
KTEX 120315Z AUTO 13005KT 10SM CLR 00/M18 A3054 RMK AO2 T00041176
KTEX 120255Z AUTO 14005KT 10SM CLR 02/M18 A3054 RMK AO2 T00151178
KTEX 120235Z AUTO 10004KT 10SM CLR 02/M18 A3055 RMK AO2 T00171179
KTEX 120215Z AUTO 13007KT 10SM CLR 02/M18 A3055 RMK AO2 T00191181
KTEX 120155Z AUTO 00000KT 10SM CLR 03/M18 A3054 RMK AO2 T00281185
KTEX 120135Z AUTO 00000KT 10SM CLR 03/M18 A3054 RMK AO2 T00341185
KTEX 120115Z AUTO 00000KT 10SM CLR 04/M19 A3054 RMK AO2 T00431190
KTEX 120055Z AUTO 24003KT 10SM CLR 05/M19 A3053 RMK AO2 T00461191
KTEX 120035Z AUTO 00000KT 10SM CLR 06/M19 A3053 RMK AO2 T00601190
KTEX 120015Z AUTO 27003KT 10SM CLR 06/M19 A3051 RMK AO2 T00611186
KTEX 112355Z AUTO 23005KT 10SM CLR 07/M18 A3051 RMK AO2 T00701185 10117 20070
KTEX 112335Z AUTO 26011G17KT 10SM CLR 08/M18 A3050 RMK AO2 T00751183
KTEX 112315Z AUTO 27012G18KT 10SM CLR 09/M18 A3050 RMK AO2 T00851184
KTEX 112255Z AUTO 27011G15KT 10SM CLR 09/M19 A3050 RMK AO2 T00911188
KTEX 112235Z AUTO 27013G18KT 10SM CLR 10/M19 A3050 RMK AO2 T00991191
KTEX 112215Z AUTO 28009G14KT 10SM CLR 11/M19 A3050 RMK AO2 T01121194
KTEX 112155Z AUTO 33007KT 10SM CLR 11/M20 A3050 RMK AO2 T01061197
KTEX 112135Z AUTO 34004KT 10SM CLR 11/M19 A3050 RMK AO2 T01101192
KTEX 112115Z AUTO 32007G14KT 290V350 10SM CLR 11/M19 A3050 RMK AO2 T01121192
KTEX 112055Z AUTO 00000KT 10SM CLR 11/M18 A3051 RMK AO2 T01101183
KTEX 112035Z AUTO 34005KT 10SM CLR 11/M18 A3051 RMK AO2 T01131181
KTEX 112015Z AUTO 36004KT 10SM CLR 11/M18 A3051 RMK AO2 T01111178
KTEX 111955Z AUTO 00000KT 10SM CLR 12/M17 A3051 RMK AO2 T01151174
KTEX 111935Z AUTO 32003KT 10SM CLR 11/M17 A3053 RMK AO2 T01101171
KTEX 111915Z AUTO 33004KT 10SM CLR 11/M18 A3055 RMK AO2 T01111177
KTEX 111855Z AUTO 29004KT 10SM CLR 11/M18 A3055 RMK AO2 T01061185
KTEX 111835Z AUTO 00000KT 10SM CLR 10/M19 A3055 RMK AO2 T01011195
KTEX 111815Z AUTO 00000KT 10SM CLR 08/M21 A3056 RMK AO2 T00831206
KTEX 111755Z AUTO 00000KT 10SM CLR 08/M21 A3058 RMK AO2 T00771206 10080 21030
KTEX 111735Z AUTO 00000KT 10SM CLR 07/M21 A3058 RMK AO2 T00691209
KTEX 111715Z AUTO 00000KT 10SM CLR 06/M21 A3058 RMK AO2 T00561212
KTEX 111655Z AUTO 00000KT 10SM CLR 05/M21 A3059 RMK AO2 T00461210
KTEX 111635Z AUTO 00000KT 10SM CLR 03/M21 A3058 RMK AO2 T00311207
KTEX 111615Z AUTO 13006KT 10SM CLR 03/M19 A3058 RMK AO2 T00251194
KTEX 111555Z AUTO 00000KT 10SM CLR 01/M20 A3058 RMK AO2 T00141196
KTEX 111535Z AUTO 14006KT 10SM CLR 00/M20 A3058 RMK AO2 T00021200
KTEX 111515Z AUTO 09003KT 10SM CLR M01/M20 A3058 RMK AO2 T10091197
KTEX 111455Z AUTO 13007KT 10SM CLR M03/M20 A3058 RMK AO2 T10301196
KTEX 111435Z AUTO 13006KT 10SM CLR M02/M20 A3058 RMK AO2 T10191202
KTEX 111415Z AUTO 14007KT 10SM CLR M01/M20 A3057 RMK AO2 T10151203
KTEX 111355Z AUTO 00000KT 10SM CLR M01/M20 A3057 RMK AO2 T10141200
KTEX 111335Z AUTO 10003KT 10SM CLR M02/M20 A3057 RMK AO2 T10231200
KTEX 111315Z AUTO 14005KT 10SM CLR M02/M20 A3056 RMK AO2 T10171200
KTEX 111255Z AUTO 14006KT 10SM CLR M03/M20 A3056 RMK AO2 T10261200
KTEX 111235Z AUTO 14006KT 10SM CLR M02/M20 A3056 RMK AO2 T10201205
KTEX 111215Z AUTO 14006KT 10SM CLR M02/M20 A3056 RMK AO2 T10191203
KTEX 111155Z AUTO 00000KT 10SM CLR M02/M21 A3056 RMK AO2 T10201208 11005 21025
KTEX 111135Z AUTO 14006KT 10SM CLR M02/M21 A3056 RMK AO2 T10191209
KTEX 111115Z AUTO 11003KT 10SM CLR M01/M21 A3056 RMK AO2 T10131215
KTEX 111055Z AUTO 00000KT 10SM CLR M02/M21 A3056 RMK AO2 T10171213
KTEX 111035Z AUTO 13007KT 10SM CLR M02/M21 A3056 RMK AO2 T10241210
KTEX 111015Z AUTO 13006KT 10SM CLR M02/M22 A3056 RMK AO2 T10191219
KTEX 110955Z AUTO 15005KT 10SM CLR M01/M21 A3056 RMK AO2 T10151213
KTEX 110935Z AUTO 13005KT 10SM CLR M02/M21 A3056 RMK AO2 T10231210
KTEX 110915Z AUTO 12005KT 10SM CLR M02/M22 A3056 RMK AO2 T10211216
KTEX 110855Z AUTO 14007KT 10SM CLR M02/M23 A3056 RMK AO2 T10181232
KTEX 110835Z AUTO 12006KT 10SM CLR M01/M23 A3056 RMK AO2 T10111232
KTEX 110815Z AUTO 15006KT 10SM CLR M01/M22 A3056 RMK AO2 T10141225
KTEX 110755Z AUTO 13005KT 10SM CLR M02/M22 A3058 RMK AO2 T10201220
KTEX 110735Z AUTO 12005KT 10SM CLR M01/M23 A3058 RMK AO2 T10131231
KTEX 110715Z AUTO 00000KT 10SM CLR M02/M23 A3058 RMK AO2 T10191234
KTEX 110655Z AUTO 00000KT 10SM CLR M01/M24 A3058 RMK AO2 T10081241 400951054
KTEX 110635Z AUTO 11003KT 10SM CLR M02/M23 A3057 RMK AO2 T10211234
KTEX 110615Z AUTO 13006KT 10SM CLR M01/M23 A3057 RMK AO2 T10131234
KTEX 110555Z AUTO 13006KT 10SM CLR M01/M23 A3056 RMK AO2 T10151231 10047 21019
KTEX 110535Z AUTO 14007KT 10SM CLR M01/M23 A3056 RMK AO2 T10121234
KTEX 110515Z AUTO 13006KT 10SM CLR 00/M24 A3056 RMK AO2 T10031240
KTEX 110455Z AUTO 13006KT 10SM CLR 00/M24 A3056 RMK AO2 T10031237
KTEX 110435Z AUTO 13005KT 10SM CLR 00/M23 A3057 RMK AO2 T10041232
KTEX 110415Z AUTO 13007KT 10SM CLR M01/M23 A3056 RMK AO2 T10111228
KTEX 110355Z AUTO 14007KT 10SM CLR M01/M23 A3056 RMK AO2 T10081229